sensor_id;sensor_type;location;lat;lon;timestamp;temperature;humidity
11629;DHT22;5870;52.320;4.970;2022-08-21T00:01:12;22.30;99.90
11629;DHT22;5870;52.320;4.970;2022-08-21T00:03:39;22.30;99.90
11629;DHT22;5870;52.320;4.970;2022-08-21T00:06:06;22.30;99.90
11629;DHT22;5870;52.320;4.970;2022-08-21T00:08:31;22.30;99.90
11629;DHT22;5870;52.320;4.970;2022-08-21T00:10:57;22.30;99.90
11629;DHT22;5870;52.320;4.970;2022-08-21T00:13:23;22.20;99.90
11629;DHT22;5870;52.320;4.970;2022-08-21T00:15:49;22.20;99.90
11629;DHT22;5870;52.320;4.970;2022-08-21T00:18:16;22.20;99.90
11629;DHT22;5870;52.320;4.970;2022-08-21T00:20:43;22.20;99.90
11629;DHT22;5870;52.320;4.970;2022-08-21T00:23:09;22.30;99.90
11629;DHT22;5870;52.320;4.970;2022-08-21T00:25:35;22.20;99.90
11629;DHT22;5870;52.320;4.970;2022-08-21T00:28:01;22.20;99.90
11629;DHT22;5870;52.320;4.970;2022-08-21T00:30:27;22.20;99.90
11629;DHT22;5870;52.320;4.970;2022-08-21T00:32:54;22.20;99.90
11629;DHT22;5870;52.320;4.970;2022-08-21T00:35:24;22.10;99.90
11629;DHT22;5870;52.320;4.970;2022-08-21T00:37:50;22.10;99.90
11629;DHT22;5870;52.320;4.970;2022-08-21T00:40:19;22.10;99.90
11629;DHT22;5870;52.320;4.970;2022-08-21T00:42:45;22.10;99.90
11629;DHT22;5870;52.320;4.970;2022-08-21T00:45:11;22.10;99.90
11629;DHT22;5870;52.320;4.970;2022-08-21T00:47:37;22.10;99.90
11629;DHT22;5870;52.320;4.970;2022-08-21T00:50:05;22.10;99.90
11629;DHT22;5870;52.320;4.970;2022-08-21T00:52:32;22.10;99.90
11629;DHT22;5870;52.320;4.970;2022-08-21T00:55:00;22.00;99.90
11629;DHT22;5870;52.320;4.970;2022-08-21T00:57:30;21.90;99.90
11629;DHT22;5870;52.320;4.970;2022-08-21T00:59:58;21.90;99.90
11629;DHT22;5870;52.320;4.970;2022-08-21T01:02:25;21.90;99.90
11629;DHT22;5870;52.320;4.970;2022-08-21T01:04:51;21.90;99.90
11629;DHT22;5870;52.320;4.970;2022-08-21T01:07:17;21.90;99.90
11629;DHT22;5870;52.320;4.970;2022-08-21T01:09:43;21.80;99.90
11629;DHT22;5870;52.320;4.970;2022-08-21T01:12:11;21.80;99.90
11629;DHT22;5870;52.320;4.970;2022-08-21T01:14:37;21.80;99.90
11629;DHT22;5870;52.320;4.970;2022-08-21T01:17:04;21.70;99.90
11629;DHT22;5870;52.320;4.970;2022-08-21T01:19:30;21.70;99.90
11629;DHT22;5870;52.320;4.970;2022-08-21T01:21:55;21.70;99.90
11629;DHT22;5870;52.320;4.970;2022-08-21T01:24:21;21.70;99.90
11629;DHT22;5870;52.320;4.970;2022-08-21T01:26:48;21.70;99.90
11629;DHT22;5870;52.320;4.970;2022-08-21T01:31:57;21.70;99.90
11629;DHT22;5870;52.320;4.970;2022-08-21T01:34:22;21.70;99.90
11629;DHT22;5870;52.320;4.970;2022-08-21T01:36:48;21.70;99.90
11629;DHT22;5870;52.320;4.970;2022-08-21T01:39:14;21.70;99.90
11629;DHT22;5870;52.320;4.970;2022-08-21T01:41:40;21.70;99.90
11629;DHT22;5870;52.320;4.970;2022-08-21T01:44:06;21.70;99.90
11629;DHT22;5870;52.320;4.970;2022-08-21T01:46:32;21.60;99.90
11629;DHT22;5870;52.320;4.970;2022-08-21T01:48:58;21.60;99.90
11629;DHT22;5870;52.320;4.970;2022-08-21T01:51:24;21.70;99.90
11629;DHT22;5870;52.320;4.970;2022-08-21T01:53:50;21.70;99.90
11629;DHT22;5870;52.320;4.970;2022-08-21T01:56:16;21.70;99.90
11629;DHT22;5870;52.320;4.970;2022-08-21T01:58:44;21.70;99.90
11629;DHT22;5870;52.320;4.970;2022-08-21T02:01:10;21.60;99.90
11629;DHT22;5870;52.320;4.970;2022-08-21T02:03:35;21.60;99.90
11629;DHT22;5870;52.320;4.970;2022-08-21T02:06:02;21.70;99.90
11629;DHT22;5870;52.320;4.970;2022-08-21T02:08:29;21.60;99.90
11629;DHT22;5870;52.320;4.970;2022-08-21T02:10:54;21.60;99.90
11629;DHT22;5870;52.320;4.970;2022-08-21T02:13:20;21.60;99.90
11629;DHT22;5870;52.320;4.970;2022-08-21T02:15:46;21.60;99.90
11629;DHT22;5870;52.320;4.970;2022-08-21T02:18:12;21.60;99.90
11629;DHT22;5870;52.320;4.970;2022-08-21T02:20:45;21.50;99.90
11629;DHT22;5870;52.320;4.970;2022-08-21T02:23:12;21.50;99.90
11629;DHT22;5870;52.320;4.970;2022-08-21T02:25:38;21.60;99.90
11629;DHT22;5870;52.320;4.970;2022-08-21T02:28:07;21.60;99.90
11629;DHT22;5870;52.320;4.970;2022-08-21T02:30:37;21.60;99.90
11629;DHT22;5870;52.320;4.970;2022-08-21T02:33:04;21.60;99.90
11629;DHT22;5870;52.320;4.970;2022-08-21T02:35:30;21.60;99.90
11629;DHT22;5870;52.320;4.970;2022-08-21T02:37:59;21.60;99.90
11629;DHT22;5870;52.320;4.970;2022-08-21T02:40:28;21.60;99.90
11629;DHT22;5870;52.320;4.970;2022-08-21T02:42:56;21.60;99.90
11629;DHT22;5870;52.320;4.970;2022-08-21T02:45:22;21.60;99.90
11629;DHT22;5870;52.320;4.970;2022-08-21T02:47:54;21.60;99.90
11629;DHT22;5870;52.320;4.970;2022-08-21T02:50:23;21.70;99.90
11629;DHT22;5870;52.320;4.970;2022-08-21T02:52:49;21.70;99.90
11629;DHT22;5870;52.320;4.970;2022-08-21T02:55:16;21.70;99.90
11629;DHT22;5870;52.320;4.970;2022-08-21T02:57:42;21.70;99.90
11629;DHT22;5870;52.320;4.970;2022-08-21T03:00:08;21.70;99.90
11629;DHT22;5870;52.320;4.970;2022-08-21T03:02:36;21.70;99.90
11629;DHT22;5870;52.320;4.970;2022-08-21T03:05:02;21.70;99.90
11629;DHT22;5870;52.320;4.970;2022-08-21T03:07:28;21.60;99.90
11629;DHT22;5870;52.320;4.970;2022-08-21T03:09:54;21.60;99.90
11629;DHT22;5870;52.320;4.970;2022-08-21T03:12:19;21.70;99.90
11629;DHT22;5870;52.320;4.970;2022-08-21T03:14:45;21.60;99.90
11629;DHT22;5870;52.320;4.970;2022-08-21T03:17:10;21.70;99.90
11629;DHT22;5870;52.320;4.970;2022-08-21T03:19:36;21.60;99.90
11629;DHT22;5870;52.320;4.970;2022-08-21T03:22:01;21.60;99.90
11629;DHT22;5870;52.320;4.970;2022-08-21T03:24:27;21.70;99.90
11629;DHT22;5870;52.320;4.970;2022-08-21T03:26:53;21.70;99.90
11629;DHT22;5870;52.320;4.970;2022-08-21T03:29:18;21.70;99.90
11629;DHT22;5870;52.320;4.970;2022-08-21T03:31:44;21.60;99.90
11629;DHT22;5870;52.320;4.970;2022-08-21T03:34:09;21.60;99.90
11629;DHT22;5870;52.320;4.970;2022-08-21T03:36:36;21.60;99.90
11629;DHT22;5870;52.320;4.970;2022-08-21T03:39:02;21.70;99.90
11629;DHT22;5870;52.320;4.970;2022-08-21T03:41:28;21.60;99.90
11629;DHT22;5870;52.320;4.970;2022-08-21T03:43:54;21.70;99.90
11629;DHT22;5870;52.320;4.970;2022-08-21T03:46:20;21.70;99.90
11629;DHT22;5870;52.320;4.970;2022-08-21T03:48:45;21.70;99.90
11629;DHT22;5870;52.320;4.970;2022-08-21T03:51:11;21.70;99.90
11629;DHT22;5870;52.320;4.970;2022-08-21T03:53:38;21.60;99.90
11629;DHT22;5870;52.320;4.970;2022-08-21T03:56:05;21.60;99.90
11629;DHT22;5870;52.320;4.970;2022-08-21T03:58:31;21.60;99.90
11629;DHT22;5870;52.320;4.970;2022-08-21T04:00:58;21.60;99.90
11629;DHT22;5870;52.320;4.970;2022-08-21T04:03:25;21.60;99.90
11629;DHT22;5870;52.320;4.970;2022-08-21T04:05:51;21.60;99.90
11629;DHT22;5870;52.320;4.970;2022-08-21T04:08:17;21.60;99.90
11629;DHT22;5870;52.320;4.970;2022-08-21T04:10:46;21.50;99.90
11629;DHT22;5870;52.320;4.970;2022-08-21T04:13:12;21.50;99.90
11629;DHT22;5870;52.320;4.970;2022-08-21T04:15:39;21.60;99.90
11629;DHT22;5870;52.320;4.970;2022-08-21T04:18:06;21.60;99.90
11629;DHT22;5870;52.320;4.970;2022-08-21T04:20:34;21.60;99.90
11629;DHT22;5870;52.320;4.970;2022-08-21T04:23:00;21.60;99.90
11629;DHT22;5870;52.320;4.970;2022-08-21T04:25:26;21.50;99.90
11629;DHT22;5870;52.320;4.970;2022-08-21T04:27:52;21.40;99.90
11629;DHT22;5870;52.320;4.970;2022-08-21T04:30:18;21.40;99.90
11629;DHT22;5870;52.320;4.970;2022-08-21T04:32:46;21.30;99.90
11629;DHT22;5870;52.320;4.970;2022-08-21T04:35:15;21.20;99.90
11629;DHT22;5870;52.320;4.970;2022-08-21T04:37:41;21.20;99.90
11629;DHT22;5870;52.320;4.970;2022-08-21T04:40:09;21.20;99.90
11629;DHT22;5870;52.320;4.970;2022-08-21T04:42:45;21.20;99.90
11629;DHT22;5870;52.320;4.970;2022-08-21T04:47:50;21.20;99.90
11629;DHT22;5870;52.320;4.970;2022-08-21T04:50:16;21.10;99.90
11629;DHT22;5870;52.320;4.970;2022-08-21T04:52:42;21.10;99.90
11629;DHT22;5870;52.320;4.970;2022-08-21T04:55:08;21.10;99.90
11629;DHT22;5870;52.320;4.970;2022-08-21T04:57:34;21.20;99.90
11629;DHT22;5870;52.320;4.970;2022-08-21T05:00:01;21.10;99.90
11629;DHT22;5870;52.320;4.970;2022-08-21T05:02:28;21.10;99.90
11629;DHT22;5870;52.320;4.970;2022-08-21T05:04:54;21.10;99.90
11629;DHT22;5870;52.320;4.970;2022-08-21T05:07:23;21.10;99.90
11629;DHT22;5870;52.320;4.970;2022-08-21T05:09:50;21.20;99.90
11629;DHT22;5870;52.320;4.970;2022-08-21T05:12:16;21.10;99.90
11629;DHT22;5870;52.320;4.970;2022-08-21T05:14:42;21.10;99.90
11629;DHT22;5870;52.320;4.970;2022-08-21T05:17:09;21.10;99.90
11629;DHT22;5870;52.320;4.970;2022-08-21T05:19:35;21.20;99.90
11629;DHT22;5870;52.320;4.970;2022-08-21T05:22:00;21.10;99.90
11629;DHT22;5870;52.320;4.970;2022-08-21T05:24:27;21.10;99.90
11629;DHT22;5870;52.320;4.970;2022-08-21T05:26:53;21.10;99.90
11629;DHT22;5870;52.320;4.970;2022-08-21T05:29:18;21.10;99.90
11629;DHT22;5870;52.320;4.970;2022-08-21T05:31:45;21.20;99.90
11629;DHT22;5870;52.320;4.970;2022-08-21T05:34:12;21.20;99.90
11629;DHT22;5870;52.320;4.970;2022-08-21T05:36:37;21.20;99.90
11629;DHT22;5870;52.320;4.970;2022-08-21T05:39:04;21.20;99.90
11629;DHT22;5870;52.320;4.970;2022-08-21T05:41:29;21.20;99.90
11629;DHT22;5870;52.320;4.970;2022-08-21T05:43:55;21.20;99.90
11629;DHT22;5870;52.320;4.970;2022-08-21T05:46:21;21.20;99.90
11629;DHT22;5870;52.320;4.970;2022-08-21T05:48:47;21.10;99.90
11629;DHT22;5870;52.320;4.970;2022-08-21T05:51:14;21.20;99.90
11629;DHT22;5870;52.320;4.970;2022-08-21T05:53:41;21.10;99.90
11629;DHT22;5870;52.320;4.970;2022-08-21T05:56:08;21.10;99.90
11629;DHT22;5870;52.320;4.970;2022-08-21T05:58:34;21.20;99.90
11629;DHT22;5870;52.320;4.970;2022-08-21T06:01:00;21.20;99.90
11629;DHT22;5870;52.320;4.970;2022-08-21T06:03:30;21.30;99.90
11629;DHT22;5870;52.320;4.970;2022-08-21T06:05:56;21.30;99.90
11629;DHT22;5870;52.320;4.970;2022-08-21T06:08:23;21.30;99.90
11629;DHT22;5870;52.320;4.970;2022-08-21T06:10:50;21.40;99.90
11629;DHT22;5870;52.320;4.970;2022-08-21T06:13:18;21.50;99.90
11629;DHT22;5870;52.320;4.970;2022-08-21T06:15:44;21.70;99.90
11629;DHT22;5870;52.320;4.970;2022-08-21T06:18:10;21.80;99.90
11629;DHT22;5870;52.320;4.970;2022-08-21T06:20:36;21.80;99.90
11629;DHT22;5870;52.320;4.970;2022-08-21T06:23:03;21.90;99.90
11629;DHT22;5870;52.320;4.970;2022-08-21T06:25:29;21.90;99.90
11629;DHT22;5870;52.320;4.970;2022-08-21T06:28:04;21.80;99.90
11629;DHT22;5870;52.320;4.970;2022-08-21T06:30:31;21.70;99.90
11629;DHT22;5870;52.320;4.970;2022-08-21T06:32:56;21.80;99.90
11629;DHT22;5870;52.320;4.970;2022-08-21T06:35:23;21.60;99.90
11629;DHT22;5870;52.320;4.970;2022-08-21T06:37:50;21.60;99.90
11629;DHT22;5870;52.320;4.970;2022-08-21T06:40:15;21.70;99.90
11629;DHT22;5870;52.320;4.970;2022-08-21T06:42:41;21.70;99.90
11629;DHT22;5870;52.320;4.970;2022-08-21T06:45:07;21.80;99.90
11629;DHT22;5870;52.320;4.970;2022-08-21T06:47:32;21.80;99.90
11629;DHT22;5870;52.320;4.970;2022-08-21T06:49:58;21.80;99.90
11629;DHT22;5870;52.320;4.970;2022-08-21T06:52:23;21.70;99.90
11629;DHT22;5870;52.320;4.970;2022-08-21T06:54:49;21.60;99.90
11629;DHT22;5870;52.320;4.970;2022-08-21T06:57:15;21.50;99.90
11629;DHT22;5870;52.320;4.970;2022-08-21T06:59:41;21.40;99.90
11629;DHT22;5870;52.320;4.970;2022-08-21T07:02:07;21.40;99.90
11629;DHT22;5870;52.320;4.970;2022-08-21T07:04:33;21.40;99.90
11629;DHT22;5870;52.320;4.970;2022-08-21T07:06:58;21.30;99.90
11629;DHT22;5870;52.320;4.970;2022-08-21T07:09:24;21.30;99.90
11629;DHT22;5870;52.320;4.970;2022-08-21T07:11:52;21.40;99.90
11629;DHT22;5870;52.320;4.970;2022-08-21T07:14:18;21.40;99.90
11629;DHT22;5870;52.320;4.970;2022-08-21T07:16:44;21.40;99.90
11629;DHT22;5870;52.320;4.970;2022-08-21T07:19:09;21.40;99.90
11629;DHT22;5870;52.320;4.970;2022-08-21T07:21:35;21.50;99.90
11629;DHT22;5870;52.320;4.970;2022-08-21T07:24:00;21.60;99.90
11629;DHT22;5870;52.320;4.970;2022-08-21T07:26:26;21.70;99.90
11629;DHT22;5870;52.320;4.970;2022-08-21T07:28:52;21.70;99.90
11629;DHT22;5870;52.320;4.970;2022-08-21T07:31:19;21.80;99.90
11629;DHT22;5870;52.320;4.970;2022-08-21T07:33:46;21.80;99.90
11629;DHT22;5870;52.320;4.970;2022-08-21T07:36:12;21.70;99.90
11629;DHT22;5870;52.320;4.970;2022-08-21T07:38:38;21.70;99.90
11629;DHT22;5870;52.320;4.970;2022-08-21T07:41:10;21.70;99.90
11629;DHT22;5870;52.320;4.970;2022-08-21T07:43:38;21.70;99.90
11629;DHT22;5870;52.320;4.970;2022-08-21T07:46:03;21.80;99.90
11629;DHT22;5870;52.320;4.970;2022-08-21T07:48:29;21.80;99.90
11629;DHT22;5870;52.320;4.970;2022-08-21T07:50:55;21.90;99.90
11629;DHT22;5870;52.320;4.970;2022-08-21T07:53:21;21.80;99.90
11629;DHT22;5870;52.320;4.970;2022-08-21T07:55:47;21.80;99.90
11629;DHT22;5870;52.320;4.970;2022-08-21T07:58:13;21.70;99.90
11629;DHT22;5870;52.320;4.970;2022-08-21T08:00:39;21.70;99.90
11629;DHT22;5870;52.320;4.970;2022-08-21T08:03:05;21.70;99.90
11629;DHT22;5870;52.320;4.970;2022-08-21T08:05:31;21.70;99.90
11629;DHT22;5870;52.320;4.970;2022-08-21T08:07:58;21.70;99.90
11629;DHT22;5870;52.320;4.970;2022-08-21T08:10:24;21.90;99.90
11629;DHT22;5870;52.320;4.970;2022-08-21T08:12:51;21.90;99.90
11629;DHT22;5870;52.320;4.970;2022-08-21T08:15:20;22.00;99.90
11629;DHT22;5870;52.320;4.970;2022-08-21T08:17:46;22.10;99.90
11629;DHT22;5870;52.320;4.970;2022-08-21T08:20:13;22.10;99.90
11629;DHT22;5870;52.320;4.970;2022-08-21T08:22:40;22.20;99.90
11629;DHT22;5870;52.320;4.970;2022-08-21T08:25:07;22.30;99.90
11629;DHT22;5870;52.320;4.970;2022-08-21T08:27:34;22.40;99.90
11629;DHT22;5870;52.320;4.970;2022-08-21T08:30:02;22.50;99.90
11629;DHT22;5870;52.320;4.970;2022-08-21T08:32:32;22.50;99.90
11629;DHT22;5870;52.320;4.970;2022-08-21T08:34:59;22.50;99.90
11629;DHT22;5870;52.320;4.970;2022-08-21T08:37:24;22.50;99.90
11629;DHT22;5870;52.320;4.970;2022-08-21T08:39:50;22.40;99.90
11629;DHT22;5870;52.320;4.970;2022-08-21T08:42:24;22.40;99.90
11629;DHT22;5870;52.320;4.970;2022-08-21T08:45:21;22.40;99.90
11629;DHT22;5870;52.320;4.970;2022-08-21T08:47:53;22.50;99.90
11629;DHT22;5870;52.320;4.970;2022-08-21T08:50:49;22.50;99.90
11629;DHT22;5870;52.320;4.970;2022-08-21T08:53:22;22.50;99.90
11629;DHT22;5870;52.320;4.970;2022-08-21T08:55:51;22.60;99.90
11629;DHT22;5870;52.320;4.970;2022-08-21T08:58:30;22.60;99.90
11629;DHT22;5870;52.320;4.970;2022-08-21T09:00:58;22.70;99.90
11629;DHT22;5870;52.320;4.970;2022-08-21T09:03:25;22.80;99.90
11629;DHT22;5870;52.320;4.970;2022-08-21T09:06:01;22.80;99.90
11629;DHT22;5870;52.320;4.970;2022-08-21T09:11:06;22.60;99.90
11629;DHT22;5870;52.320;4.970;2022-08-21T09:16:49;22.20;99.90
11629;DHT22;5870;52.320;4.970;2022-08-21T09:22:07;22.10;99.90
11629;DHT22;5870;52.320;4.970;2022-08-21T09:24:45;21.90;99.90
11629;DHT22;5870;52.320;4.970;2022-08-21T09:27:17;21.80;99.90
11629;DHT22;5870;52.320;4.970;2022-08-21T09:29:46;21.80;99.90
11629;DHT22;5870;52.320;4.970;2022-08-21T09:32:21;21.60;99.90
11629;DHT22;5870;52.320;4.970;2022-08-21T09:35:00;21.60;99.90
11629;DHT22;5870;52.320;4.970;2022-08-21T09:37:31;21.70;99.90
11629;DHT22;5870;52.320;4.970;2022-08-21T09:39:58;21.80;99.90
11629;DHT22;5870;52.320;4.970;2022-08-21T09:42:30;21.90;99.90
11629;DHT22;5870;52.320;4.970;2022-08-21T09:45:16;22.00;99.90
11629;DHT22;5870;52.320;4.970;2022-08-21T09:47:43;22.10;99.90
11629;DHT22;5870;52.320;4.970;2022-08-21T09:50:16;22.20;99.90
11629;DHT22;5870;52.320;4.970;2022-08-21T09:52:48;22.20;99.90
11629;DHT22;5870;52.320;4.970;2022-08-21T09:55:27;22.40;99.90
11629;DHT22;5870;52.320;4.970;2022-08-21T09:58:14;22.50;99.90
11629;DHT22;5870;52.320;4.970;2022-08-21T10:00:40;22.50;99.90
11629;DHT22;5870;52.320;4.970;2022-08-21T10:03:15;22.50;99.90
11629;DHT22;5870;52.320;4.970;2022-08-21T10:08:24;22.50;99.90
11629;DHT22;5870;52.320;4.970;2022-08-21T10:10:56;22.60;99.90
11629;DHT22;5870;52.320;4.970;2022-08-21T10:13:30;22.60;99.90
11629;DHT22;5870;52.320;4.970;2022-08-21T10:30:25;23.00;99.90
11629;DHT22;5870;52.320;4.970;2022-08-21T10:36:02;23.00;99.90
11629;DHT22;5870;52.320;4.970;2022-08-21T10:47:18;22.50;99.90
11629;DHT22;5870;52.320;4.970;2022-08-21T10:50:31;22.60;99.90
11629;DHT22;5870;52.320;4.970;2022-08-21T10:53:25;22.60;99.90
11629;DHT22;5870;52.320;4.970;2022-08-21T10:56:01;22.60;99.90
11629;DHT22;5870;52.320;4.970;2022-08-21T10:58:49;22.70;99.90
11629;DHT22;5870;52.320;4.970;2022-08-21T11:01:29;22.80;99.90
11629;DHT22;5870;52.320;4.970;2022-08-21T11:04:15;23.00;99.90
11629;DHT22;5870;52.320;4.970;2022-08-21T11:06:46;22.90;99.90
11629;DHT22;5870;52.320;4.970;2022-08-21T11:09:16;22.90;99.90
11629;DHT22;5870;52.320;4.970;2022-08-21T11:12:05;22.80;99.90
11629;DHT22;5870;52.320;4.970;2022-08-21T11:17:48;22.90;99.90
11629;DHT22;5870;52.320;4.970;2022-08-21T11:23:05;22.90;99.90
11629;DHT22;5870;52.320;4.970;2022-08-21T11:25:39;22.90;99.90
11629;DHT22;5870;52.320;4.970;2022-08-21T11:28:23;22.90;99.90
11629;DHT22;5870;52.320;4.970;2022-08-21T11:31:14;22.90;99.90
11629;DHT22;5870;52.320;4.970;2022-08-21T11:34:02;23.00;99.90
11629;DHT22;5870;52.320;4.970;2022-08-21T11:42:19;22.90;99.90
11629;DHT22;5870;52.320;4.970;2022-08-21T11:50:56;23.20;99.90
11629;DHT22;5870;52.320;4.970;2022-08-21T11:53:34;23.30;99.90
11629;DHT22;5870;52.320;4.970;2022-08-21T11:56:12;23.60;99.90
11629;DHT22;5870;52.320;4.970;2022-08-21T11:58:42;23.10;99.90
11629;DHT22;5870;52.320;4.970;2022-08-21T12:01:16;23.00;99.90
11629;DHT22;5870;52.320;4.970;2022-08-21T12:04:01;23.00;99.90
11629;DHT22;5870;52.320;4.970;2022-08-21T12:06:41;23.00;99.90
11629;DHT22;5870;52.320;4.970;2022-08-21T12:09:10;23.10;99.90
11629;DHT22;5870;52.320;4.970;2022-08-21T12:11:50;23.00;99.90
11629;DHT22;5870;52.320;4.970;2022-08-21T12:14:18;22.90;99.90
11629;DHT22;5870;52.320;4.970;2022-08-21T12:16:48;23.00;99.90
11629;DHT22;5870;52.320;4.970;2022-08-21T12:19:29;23.10;99.90
11629;DHT22;5870;52.320;4.970;2022-08-21T12:24:40;23.00;99.90
11629;DHT22;5870;52.320;4.970;2022-08-21T12:27:29;23.00;99.90
11629;DHT22;5870;52.320;4.970;2022-08-21T12:30:18;23.10;99.90
11629;DHT22;5870;52.320;4.970;2022-08-21T12:32:53;23.10;99.90
11629;DHT22;5870;52.320;4.970;2022-08-21T12:35:24;23.20;99.90
11629;DHT22;5870;52.320;4.970;2022-08-21T12:38:00;23.30;99.90
11629;DHT22;5870;52.320;4.970;2022-08-21T12:40:31;23.40;99.90
11629;DHT22;5870;52.320;4.970;2022-08-21T12:43:00;23.50;99.90
11629;DHT22;5870;52.320;4.970;2022-08-21T12:45:31;23.60;99.90
11629;DHT22;5870;52.320;4.970;2022-08-21T12:48:08;23.80;99.90
11629;DHT22;5870;52.320;4.970;2022-08-21T12:53:50;24.00;99.90
11629;DHT22;5870;52.320;4.970;2022-08-21T12:56:18;23.90;99.90
11629;DHT22;5870;52.320;4.970;2022-08-21T12:58:47;23.90;99.90
11629;DHT22;5870;52.320;4.970;2022-08-21T13:01:37;24.00;99.90
11629;DHT22;5870;52.320;4.970;2022-08-21T13:04:09;23.90;99.90
11629;DHT22;5870;52.320;4.970;2022-08-21T13:06:42;23.90;99.90
11629;DHT22;5870;52.320;4.970;2022-08-21T13:09:12;23.80;99.90
11629;DHT22;5870;52.320;4.970;2022-08-21T13:11:40;23.70;99.90
11629;DHT22;5870;52.320;4.970;2022-08-21T13:14:20;23.50;99.90
11629;DHT22;5870;52.320;4.970;2022-08-21T13:16:53;23.50;99.90
11629;DHT22;5870;52.320;4.970;2022-08-21T13:19:19;23.60;99.90
11629;DHT22;5870;52.320;4.970;2022-08-21T13:21:45;23.60;99.90
11629;DHT22;5870;52.320;4.970;2022-08-21T13:24:30;23.60;99.90
11629;DHT22;5870;52.320;4.970;2022-08-21T13:26:58;23.70;99.90
11629;DHT22;5870;52.320;4.970;2022-08-21T13:29:31;23.50;99.90
11629;DHT22;5870;52.320;4.970;2022-08-21T13:32:03;23.50;99.90
11629;DHT22;5870;52.320;4.970;2022-08-21T13:34:32;23.40;99.90
11629;DHT22;5870;52.320;4.970;2022-08-21T13:37:02;23.40;99.90
11629;DHT22;5870;52.320;4.970;2022-08-21T13:39:29;23.40;99.90
11629;DHT22;5870;52.320;4.970;2022-08-21T13:41:57;23.30;99.90
11629;DHT22;5870;52.320;4.970;2022-08-21T13:44:36;23.30;99.90
11629;DHT22;5870;52.320;4.970;2022-08-21T13:47:04;23.30;99.90
11629;DHT22;5870;52.320;4.970;2022-08-21T13:49:51;23.40;99.90
11629;DHT22;5870;52.320;4.970;2022-08-21T13:52:23;23.40;99.90
11629;DHT22;5870;52.320;4.970;2022-08-21T13:54:58;23.40;99.90
11629;DHT22;5870;52.320;4.970;2022-08-21T13:57:30;23.40;99.90
11629;DHT22;5870;52.320;4.970;2022-08-21T14:00:16;23.30;99.90
11629;DHT22;5870;52.320;4.970;2022-08-21T14:02:47;23.30;99.90
11629;DHT22;5870;52.320;4.970;2022-08-21T14:05:28;23.20;99.90
11629;DHT22;5870;52.320;4.970;2022-08-21T14:08:08;23.10;99.90
11629;DHT22;5870;52.320;4.970;2022-08-21T14:10:42;23.00;99.90
11629;DHT22;5870;52.320;4.970;2022-08-21T14:13:24;23.00;99.90
11629;DHT22;5870;52.320;4.970;2022-08-21T14:15:59;23.00;99.90
11629;DHT22;5870;52.320;4.970;2022-08-21T14:18:26;23.00;99.90
11629;DHT22;5870;52.320;4.970;2022-08-21T14:21:04;22.90;99.90
11629;DHT22;5870;52.320;4.970;2022-08-21T14:23:29;23.10;99.90
11629;DHT22;5870;52.320;4.970;2022-08-21T14:26:02;23.40;99.90
11629;DHT22;5870;52.320;4.970;2022-08-21T14:28:38;23.50;99.90
11629;DHT22;5870;52.320;4.970;2022-08-21T14:31:18;23.50;99.90
11629;DHT22;5870;52.320;4.970;2022-08-21T14:33:44;23.40;99.90
11629;DHT22;5870;52.320;4.970;2022-08-21T14:36:09;23.40;99.90
11629;DHT22;5870;52.320;4.970;2022-08-21T14:38:38;23.20;99.90
11629;DHT22;5870;52.320;4.970;2022-08-21T14:41:18;23.10;99.90
11629;DHT22;5870;52.320;4.970;2022-08-21T14:43:45;23.00;99.90
11629;DHT22;5870;52.320;4.970;2022-08-21T14:46:21;23.00;99.90
11629;DHT22;5870;52.320;4.970;2022-08-21T14:48:48;23.00;99.90
11629;DHT22;5870;52.320;4.970;2022-08-21T14:51:14;22.90;99.90
11629;DHT22;5870;52.320;4.970;2022-08-21T14:53:40;23.00;99.90
11629;DHT22;5870;52.320;4.970;2022-08-21T14:56:06;23.10;99.90
11629;DHT22;5870;52.320;4.970;2022-08-21T14:58:35;23.10;99.90
11629;DHT22;5870;52.320;4.970;2022-08-21T15:01:02;23.00;99.90
11629;DHT22;5870;52.320;4.970;2022-08-21T15:03:30;23.10;99.90
11629;DHT22;5870;52.320;4.970;2022-08-21T15:05:56;23.00;99.90
11629;DHT22;5870;52.320;4.970;2022-08-21T15:08:22;23.00;99.90
11629;DHT22;5870;52.320;4.970;2022-08-21T15:10:48;22.90;99.90
11629;DHT22;5870;52.320;4.970;2022-08-21T15:13:13;23.00;99.90
11629;DHT22;5870;52.320;4.970;2022-08-21T15:15:42;23.10;99.90
11629;DHT22;5870;52.320;4.970;2022-08-21T15:18:09;23.00;99.90
11629;DHT22;5870;52.320;4.970;2022-08-21T15:20:35;23.10;99.90
11629;DHT22;5870;52.320;4.970;2022-08-21T15:23:01;23.10;99.90
11629;DHT22;5870;52.320;4.970;2022-08-21T15:25:27;23.10;99.90
11629;DHT22;5870;52.320;4.970;2022-08-21T15:27:53;23.10;99.90
11629;DHT22;5870;52.320;4.970;2022-08-21T15:30:19;23.00;99.90
11629;DHT22;5870;52.320;4.970;2022-08-21T15:32:44;23.00;99.90
11629;DHT22;5870;52.320;4.970;2022-08-21T15:35:11;23.00;99.90
11629;DHT22;5870;52.320;4.970;2022-08-21T15:37:37;23.00;99.90
11629;DHT22;5870;52.320;4.970;2022-08-21T15:40:04;23.00;99.90
11629;DHT22;5870;52.320;4.970;2022-08-21T15:42:32;23.00;99.90
11629;DHT22;5870;52.320;4.970;2022-08-21T15:44:58;23.20;99.90
11629;DHT22;5870;52.320;4.970;2022-08-21T15:47:32;23.40;99.90
11629;DHT22;5870;52.320;4.970;2022-08-21T15:49:58;23.50;99.90
11629;DHT22;5870;52.320;4.970;2022-08-21T15:52:24;23.60;99.90
11629;DHT22;5870;52.320;4.970;2022-08-21T15:54:50;23.60;99.90
11629;DHT22;5870;52.320;4.970;2022-08-21T15:57:18;23.70;99.90
11629;DHT22;5870;52.320;4.970;2022-08-21T15:59:48;23.70;99.90
11629;DHT22;5870;52.320;4.970;2022-08-21T16:02:23;23.70;99.90
11629;DHT22;5870;52.320;4.970;2022-08-21T16:04:49;23.80;99.90
11629;DHT22;5870;52.320;4.970;2022-08-21T16:07:15;24.00;99.90
11629;DHT22;5870;52.320;4.970;2022-08-21T16:09:41;24.30;99.90
11629;DHT22;5870;52.320;4.970;2022-08-21T16:12:08;24.40;99.90
11629;DHT22;5870;52.320;4.970;2022-08-21T16:14:35;24.30;99.90
11629;DHT22;5870;52.320;4.970;2022-08-21T16:17:05;24.10;99.90
11629;DHT22;5870;52.320;4.970;2022-08-21T16:19:31;23.90;99.90
11629;DHT22;5870;52.320;4.970;2022-08-21T16:21:57;23.80;99.90
11629;DHT22;5870;52.320;4.970;2022-08-21T16:24:23;23.80;99.90
11629;DHT22;5870;52.320;4.970;2022-08-21T16:26:49;23.90;99.90
11629;DHT22;5870;52.320;4.970;2022-08-21T16:29:15;24.20;99.90
11629;DHT22;5870;52.320;4.970;2022-08-21T16:31:41;24.40;99.90
11629;DHT22;5870;52.320;4.970;2022-08-21T16:34:07;24.60;99.90
11629;DHT22;5870;52.320;4.970;2022-08-21T16:36:38;24.90;99.90
11629;DHT22;5870;52.320;4.970;2022-08-21T16:39:03;25.20;99.90
11629;DHT22;5870;52.320;4.970;2022-08-21T16:41:32;25.40;99.90
11629;DHT22;5870;52.320;4.970;2022-08-21T16:43:59;25.40;99.90
11629;DHT22;5870;52.320;4.970;2022-08-21T16:46:26;25.50;99.90
11629;DHT22;5870;52.320;4.970;2022-08-21T16:48:52;25.40;99.90
11629;DHT22;5870;52.320;4.970;2022-08-21T16:51:17;25.20;99.90
11629;DHT22;5870;52.320;4.970;2022-08-21T16:53:43;25.20;99.90
11629;DHT22;5870;52.320;4.970;2022-08-21T16:56:11;25.30;99.90
11629;DHT22;5870;52.320;4.970;2022-08-21T16:58:41;25.30;99.90
11629;DHT22;5870;52.320;4.970;2022-08-21T17:01:09;25.20;99.90
11629;DHT22;5870;52.320;4.970;2022-08-21T17:03:40;24.90;99.90